sensor_id;sensor_type;location;lat;lon;timestamp;P1;durP1;ratioP1;P2;durP2;ratioP2
14698;SDS011;7439;50.804;4.602;2023-07-13T00:00:30;3.80;;;2.33;;
14698;SDS011;7439;50.804;4.602;2023-07-13T00:02:58;9.60;;;3.27;;
14698;SDS011;7439;50.804;4.602;2023-07-13T00:05:26;5.43;;;2.17;;
14698;SDS011;7439;50.804;4.602;2023-07-13T00:07:53;5.83;;;2.13;;
14698;SDS011;7439;50.804;4.602;2023-07-13T00:10:20;2.33;;;2.13;;
14698;SDS011;7439;50.804;4.602;2023-07-13T00:12:48;4.87;;;2.30;;
14698;SDS011;7439;50.804;4.602;2023-07-13T00:15:18;3.10;;;2.00;;
14698;SDS011;7439;50.804;4.602;2023-07-13T00:17:48;5.27;;;2.27;;
14698;SDS011;7439;50.804;4.602;2023-07-13T00:20:16;4.97;;;1.97;;
14698;SDS011;7439;50.804;4.602;2023-07-13T00:22:46;8.40;;;3.03;;
14698;SDS011;7439;50.804;4.602;2023-07-13T00:25:14;8.80;;;2.27;;
14698;SDS011;7439;50.804;4.602;2023-07-13T00:27:41;6.13;;;2.60;;
14698;SDS011;7439;50.804;4.602;2023-07-13T00:30:09;3.83;;;2.10;;
14698;SDS011;7439;50.804;4.602;2023-07-13T00:32:37;4.87;;;2.47;;
14698;SDS011;7439;50.804;4.602;2023-07-13T00:35:05;3.90;;;2.10;;
14698;SDS011;7439;50.804;4.602;2023-07-13T00:37:33;6.43;;;2.80;;
14698;SDS011;7439;50.804;4.602;2023-07-13T00:40:02;5.77;;;3.00;;
14698;SDS011;7439;50.804;4.602;2023-07-13T00:42:29;5.57;;;2.57;;
14698;SDS011;7439;50.804;4.602;2023-07-13T00:45:07;5.07;;;3.10;;
14698;SDS011;7439;50.804;4.602;2023-07-13T00:47:34;5.33;;;2.47;;
14698;SDS011;7439;50.804;4.602;2023-07-13T00:50:02;4.73;;;2.40;;
14698;SDS011;7439;50.804;4.602;2023-07-13T00:52:30;6.30;;;2.70;;
14698;SDS011;7439;50.804;4.602;2023-07-13T00:54:59;7.07;;;2.40;;
14698;SDS011;7439;50.804;4.602;2023-07-13T00:57:26;7.30;;;3.10;;
14698;SDS011;7439;50.804;4.602;2023-07-13T00:59:54;2.87;;;2.27;;
14698;SDS011;7439;50.804;4.602;2023-07-13T01:02:22;8.43;;;2.87;;
14698;SDS011;7439;50.804;4.602;2023-07-13T01:04:51;7.83;;;2.77;;
14698;SDS011;7439;50.804;4.602;2023-07-13T01:07:18;6.27;;;2.80;;
14698;SDS011;7439;50.804;4.602;2023-07-13T01:09:45;3.63;;;2.03;;
14698;SDS011;7439;50.804;4.602;2023-07-13T01:12:14;3.50;;;2.83;;
14698;SDS011;7439;50.804;4.602;2023-07-13T01:14:42;4.50;;;2.33;;
14698;SDS011;7439;50.804;4.602;2023-07-13T01:17:09;4.53;;;2.70;;
14698;SDS011;7439;50.804;4.602;2023-07-13T01:19:37;8.77;;;3.03;;
14698;SDS011;7439;50.804;4.602;2023-07-13T01:22:07;3.20;;;2.50;;
14698;SDS011;7439;50.804;4.602;2023-07-13T01:24:36;4.83;;;2.70;;
14698;SDS011;7439;50.804;4.602;2023-07-13T01:27:05;5.97;;;2.80;;
14698;SDS011;7439;50.804;4.602;2023-07-13T01:29:35;5.73;;;2.57;;
14698;SDS011;7439;50.804;4.602;2023-07-13T01:32:07;6.00;;;2.90;;
14698;SDS011;7439;50.804;4.602;2023-07-13T01:34:34;3.93;;;2.73;;
14698;SDS011;7439;50.804;4.602;2023-07-13T01:37:02;6.83;;;2.73;;
14698;SDS011;7439;50.804;4.602;2023-07-13T01:39:31;8.23;;;2.77;;
14698;SDS011;7439;50.804;4.602;2023-07-13T01:41:58;4.73;;;2.60;;
14698;SDS011;7439;50.804;4.602;2023-07-13T01:44:26;5.67;;;3.10;;
14698;SDS011;7439;50.804;4.602;2023-07-13T01:46:53;9.43;;;2.73;;
14698;SDS011;7439;50.804;4.602;2023-07-13T01:49:21;7.03;;;2.80;;
14698;SDS011;7439;50.804;4.602;2023-07-13T01:51:48;4.33;;;2.90;;
14698;SDS011;7439;50.804;4.602;2023-07-13T01:54:15;12.00;;;3.17;;
14698;SDS011;7439;50.804;4.602;2023-07-13T01:56:44;5.80;;;3.00;;
14698;SDS011;7439;50.804;4.602;2023-07-13T01:59:12;6.10;;;3.93;;
14698;SDS011;7439;50.804;4.602;2023-07-13T02:01:39;5.53;;;2.77;;
14698;SDS011;7439;50.804;4.602;2023-07-13T02:04:06;8.23;;;3.70;;
14698;SDS011;7439;50.804;4.602;2023-07-13T02:06:33;7.97;;;3.47;;
14698;SDS011;7439;50.804;4.602;2023-07-13T02:09:01;6.70;;;2.70;;
14698;SDS011;7439;50.804;4.602;2023-07-13T02:11:28;4.53;;;3.00;;
14698;SDS011;7439;50.804;4.602;2023-07-13T02:14:00;8.63;;;3.27;;
14698;SDS011;7439;50.804;4.602;2023-07-13T02:16:27;9.43;;;3.60;;
14698;SDS011;7439;50.804;4.602;2023-07-13T02:18:55;5.57;;;3.00;;
14698;SDS011;7439;50.804;4.602;2023-07-13T02:21:22;8.67;;;3.40;;
14698;SDS011;7439;50.804;4.602;2023-07-13T02:23:49;5.83;;;3.33;;
14698;SDS011;7439;50.804;4.602;2023-07-13T02:26:17;5.73;;;3.50;;
14698;SDS011;7439;50.804;4.602;2023-07-13T02:28:45;9.53;;;4.00;;
14698;SDS011;7439;50.804;4.602;2023-07-13T02:31:15;8.27;;;4.50;;
14698;SDS011;7439;50.804;4.602;2023-07-13T02:33:42;6.20;;;3.30;;
14698;SDS011;7439;50.804;4.602;2023-07-13T02:36:10;5.00;;;3.33;;
14698;SDS011;7439;50.804;4.602;2023-07-13T02:38:37;9.30;;;3.63;;
14698;SDS011;7439;50.804;4.602;2023-07-13T02:41:05;6.67;;;3.00;;
14698;SDS011;7439;50.804;4.602;2023-07-13T02:43:33;15.10;;;3.20;;
14698;SDS011;7439;50.804;4.602;2023-07-13T02:46:00;7.93;;;3.30;;
14698;SDS011;7439;50.804;4.602;2023-07-13T02:48:33;4.87;;;3.40;;
14698;SDS011;7439;50.804;4.602;2023-07-13T02:51:01;9.30;;;4.20;;
14698;SDS011;7439;50.804;4.602;2023-07-13T02:53:28;8.37;;;3.33;;
14698;SDS011;7439;50.804;4.602;2023-07-13T02:55:55;8.43;;;3.23;;
14698;SDS011;7439;50.804;4.602;2023-07-13T02:58:23;8.90;;;2.73;;
14698;SDS011;7439;50.804;4.602;2023-07-13T03:00:51;9.37;;;3.63;;
14698;SDS011;7439;50.804;4.602;2023-07-13T03:03:19;16.33;;;3.50;;
14698;SDS011;7439;50.804;4.602;2023-07-13T03:05:47;5.83;;;2.87;;
14698;SDS011;7439;50.804;4.602;2023-07-13T03:08:15;11.73;;;4.10;;
14698;SDS011;7439;50.804;4.602;2023-07-13T03:10:43;8.30;;;4.43;;
14698;SDS011;7439;50.804;4.602;2023-07-13T03:13:10;9.23;;;3.47;;
14698;SDS011;7439;50.804;4.602;2023-07-13T03:15:37;9.13;;;3.20;;
14698;SDS011;7439;50.804;4.602;2023-07-13T03:18:05;7.70;;;4.40;;
14698;SDS011;7439;50.804;4.602;2023-07-13T03:20:33;7.50;;;3.50;;
14698;SDS011;7439;50.804;4.602;2023-07-13T03:23:01;10.10;;;4.40;;
14698;SDS011;7439;50.804;4.602;2023-07-13T03:25:29;6.13;;;3.20;;
14698;SDS011;7439;50.804;4.602;2023-07-13T03:27:56;11.93;;;4.97;;
14698;SDS011;7439;50.804;4.602;2023-07-13T03:30:24;6.80;;;3.70;;
14698;SDS011;7439;50.804;4.602;2023-07-13T03:32:51;9.43;;;3.50;;
14698;SDS011;7439;50.804;4.602;2023-07-13T03:35:18;8.33;;;3.80;;
14698;SDS011;7439;50.804;4.602;2023-07-13T03:37:46;5.63;;;3.43;;
14698;SDS011;7439;50.804;4.602;2023-07-13T03:40:14;7.33;;;3.03;;
14698;SDS011;7439;50.804;4.602;2023-07-13T03:42:42;7.33;;;3.50;;
14698;SDS011;7439;50.804;4.602;2023-07-13T03:45:09;6.60;;;3.07;;
14698;SDS011;7439;50.804;4.602;2023-07-13T03:47:37;8.80;;;3.53;;
14698;SDS011;7439;50.804;4.602;2023-07-13T03:50:04;6.40;;;3.33;;
14698;SDS011;7439;50.804;4.602;2023-07-13T03:52:32;7.43;;;3.33;;
14698;SDS011;7439;50.804;4.602;2023-07-13T03:54:59;12.83;;;4.37;;
14698;SDS011;7439;50.804;4.602;2023-07-13T03:57:28;6.63;;;3.17;;
14698;SDS011;7439;50.804;4.602;2023-07-13T03:59:56;7.37;;;4.20;;
14698;SDS011;7439;50.804;4.602;2023-07-13T04:02:23;10.27;;;3.10;;
14698;SDS011;7439;50.804;4.602;2023-07-13T04:04:50;6.27;;;3.27;;
14698;SDS011;7439;50.804;4.602;2023-07-13T04:07:18;8.70;;;3.27;;
14698;SDS011;7439;50.804;4.602;2023-07-13T04:09:46;10.10;;;3.37;;
14698;SDS011;7439;50.804;4.602;2023-07-13T04:12:13;11.93;;;3.73;;
14698;SDS011;7439;50.804;4.602;2023-07-13T04:14:43;6.17;;;3.77;;
14698;SDS011;7439;50.804;4.602;2023-07-13T04:17:11;10.70;;;3.03;;
14698;SDS011;7439;50.804;4.602;2023-07-13T04:19:38;5.83;;;3.37;;
14698;SDS011;7439;50.804;4.602;2023-07-13T04:22:06;7.40;;;3.20;;
14698;SDS011;7439;50.804;4.602;2023-07-13T04:24:33;10.57;;;3.67;;
14698;SDS011;7439;50.804;4.602;2023-07-13T04:27:00;7.27;;;3.70;;
14698;SDS011;7439;50.804;4.602;2023-07-13T04:29:28;7.80;;;3.50;;
14698;SDS011;7439;50.804;4.602;2023-07-13T04:31:56;9.80;;;4.10;;
14698;SDS011;7439;50.804;4.602;2023-07-13T04:34:24;7.27;;;3.07;;
14698;SDS011;7439;50.804;4.602;2023-07-13T04:36:51;6.63;;;3.30;;
14698;SDS011;7439;50.804;4.602;2023-07-13T04:39:18;8.70;;;3.67;;
14698;SDS011;7439;50.804;4.602;2023-07-13T04:41:46;10.63;;;3.60;;
14698;SDS011;7439;50.804;4.602;2023-07-13T04:44:13;6.47;;;3.57;;
14698;SDS011;7439;50.804;4.602;2023-07-13T04:46:40;12.37;;;4.03;;
14698;SDS011;7439;50.804;4.602;2023-07-13T04:49:09;9.30;;;3.33;;
14698;SDS011;7439;50.804;4.602;2023-07-13T04:51:37;9.37;;;3.83;;
14698;SDS011;7439;50.804;4.602;2023-07-13T04:54:04;7.67;;;3.03;;
14698;SDS011;7439;50.804;4.602;2023-07-13T04:56:33;7.20;;;3.30;;
14698;SDS011;7439;50.804;4.602;2023-07-13T04:59:00;5.90;;;3.17;;
14698;SDS011;7439;50.804;4.602;2023-07-13T05:01:28;6.27;;;3.10;;
14698;SDS011;7439;50.804;4.602;2023-07-13T05:03:56;7.47;;;4.03;;
14698;SDS011;7439;50.804;4.602;2023-07-13T05:06:26;8.07;;;3.60;;
14698;SDS011;7439;50.804;4.602;2023-07-13T05:08:53;9.20;;;3.93;;
14698;SDS011;7439;50.804;4.602;2023-07-13T05:11:20;7.07;;;3.27;;
14698;SDS011;7439;50.804;4.602;2023-07-13T05:13:48;10.13;;;3.23;;
14698;SDS011;7439;50.804;4.602;2023-07-13T05:16:15;12.30;;;3.97;;
14698;SDS011;7439;50.804;4.602;2023-07-13T05:18:42;9.90;;;3.37;;
14698;SDS011;7439;50.804;4.602;2023-07-13T05:21:10;9.30;;;3.20;;
14698;SDS011;7439;50.804;4.602;2023-07-13T05:23:39;9.60;;;4.03;;
14698;SDS011;7439;50.804;4.602;2023-07-13T05:26:07;9.87;;;3.60;;
14698;SDS011;7439;50.804;4.602;2023-07-13T05:28:35;5.80;;;2.97;;
14698;SDS011;7439;50.804;4.602;2023-07-13T05:31:02;5.80;;;2.77;;
14698;SDS011;7439;50.804;4.602;2023-07-13T05:33:30;6.60;;;3.03;;
14698;SDS011;7439;50.804;4.602;2023-07-13T05:35:57;8.60;;;3.17;;
14698;SDS011;7439;50.804;4.602;2023-07-13T05:38:25;11.97;;;4.90;;
14698;SDS011;7439;50.804;4.602;2023-07-13T05:40:54;11.73;;;3.27;;
14698;SDS011;7439;50.804;4.602;2023-07-13T05:43:22;15.33;;;3.80;;
14698;SDS011;7439;50.804;4.602;2023-07-13T05:45:50;9.30;;;3.53;;
14698;SDS011;7439;50.804;4.602;2023-07-13T05:48:18;8.50;;;3.40;;
14698;SDS011;7439;50.804;4.602;2023-07-13T05:50:45;10.27;;;4.10;;
14698;SDS011;7439;50.804;4.602;2023-07-13T05:53:13;8.27;;;3.30;;
14698;SDS011;7439;50.804;4.602;2023-07-13T05:55:43;8.60;;;3.00;;
14698;SDS011;7439;50.804;4.602;2023-07-13T05:58:14;9.80;;;3.93;;
14698;SDS011;7439;50.804;4.602;2023-07-13T06:00:41;8.97;;;3.70;;
14698;SDS011;7439;50.804;4.602;2023-07-13T06:03:08;8.93;;;3.10;;
14698;SDS011;7439;50.804;4.602;2023-07-13T06:05:36;10.90;;;3.63;;
14698;SDS011;7439;50.804;4.602;2023-07-13T06:08:04;9.77;;;3.60;;
14698;SDS011;7439;50.804;4.602;2023-07-13T06:10:32;7.40;;;3.30;;
14698;SDS011;7439;50.804;4.602;2023-07-13T06:12:59;8.50;;;3.07;;
14698;SDS011;7439;50.804;4.602;2023-07-13T06:15:28;12.27;;;3.63;;
14698;SDS011;7439;50.804;4.602;2023-07-13T06:17:55;13.67;;;3.90;;
14698;SDS011;7439;50.804;4.602;2023-07-13T06:20:22;5.97;;;3.30;;
14698;SDS011;7439;50.804;4.602;2023-07-13T06:22:50;8.17;;;3.37;;
14698;SDS011;7439;50.804;4.602;2023-07-13T06:25:17;9.67;;;3.60;;
14698;SDS011;7439;50.804;4.602;2023-07-13T06:27:44;8.27;;;3.13;;
14698;SDS011;7439;50.804;4.602;2023-07-13T06:30:12;12.33;;;3.50;;
14698;SDS011;7439;50.804;4.602;2023-07-13T06:32:41;8.07;;;3.30;;
14698;SDS011;7439;50.804;4.602;2023-07-13T06:35:08;10.00;;;3.10;;
14698;SDS011;7439;50.804;4.602;2023-07-13T06:37:37;7.83;;;3.20;;
14698;SDS011;7439;50.804;4.602;2023-07-13T06:40:05;9.43;;;3.97;;
14698;SDS011;7439;50.804;4.602;2023-07-13T06:42:33;9.07;;;3.67;;
14698;SDS011;7439;50.804;4.602;2023-07-13T06:45:00;9.93;;;3.70;;
14698;SDS011;7439;50.804;4.602;2023-07-13T06:47:28;8.10;;;3.33;;
14698;SDS011;7439;50.804;4.602;2023-07-13T06:49:57;10.53;;;3.73;;
14698;SDS011;7439;50.804;4.602;2023-07-13T06:52:24;7.77;;;3.60;;
14698;SDS011;7439;50.804;4.602;2023-07-13T06:54:51;10.17;;;3.50;;
14698;SDS011;7439;50.804;4.602;2023-07-13T06:57:19;7.07;;;2.97;;
14698;SDS011;7439;50.804;4.602;2023-07-13T06:59:46;8.77;;;3.40;;
14698;SDS011;7439;50.804;4.602;2023-07-13T07:02:13;8.23;;;3.30;;
14698;SDS011;7439;50.804;4.602;2023-07-13T07:04:41;7.90;;;3.50;;
14698;SDS011;7439;50.804;4.602;2023-07-13T07:07:09;6.30;;;2.90;;
14698;SDS011;7439;50.804;4.602;2023-07-13T07:09:37;7.60;;;3.47;;
14698;SDS011;7439;50.804;4.602;2023-07-13T07:12:04;5.73;;;2.87;;
14698;SDS011;7439;50.804;4.602;2023-07-13T07:14:32;7.93;;;3.50;;
14698;SDS011;7439;50.804;4.602;2023-07-13T07:17:00;8.57;;;2.83;;
14698;SDS011;7439;50.804;4.602;2023-07-13T07:19:27;8.67;;;3.33;;
14698;SDS011;7439;50.804;4.602;2023-07-13T07:21:55;10.83;;;3.33;;
14698;SDS011;7439;50.804;4.602;2023-07-13T07:24:24;8.73;;;3.63;;
14698;SDS011;7439;50.804;4.602;2023-07-13T07:26:51;7.50;;;3.03;;
14698;SDS011;7439;50.804;4.602;2023-07-13T07:29:19;8.53;;;3.37;;
14698;SDS011;7439;50.804;4.602;2023-07-13T07:31:47;10.80;;;3.63;;
14698;SDS011;7439;50.804;4.602;2023-07-13T07:34:14;4.97;;;3.10;;
14698;SDS011;7439;50.804;4.602;2023-07-13T07:36:42;11.47;;;3.63;;
14698;SDS011;7439;50.804;4.602;2023-07-13T07:39:09;9.80;;;4.00;;
14698;SDS011;7439;50.804;4.602;2023-07-13T07:41:38;7.37;;;3.03;;
14698;SDS011;7439;50.804;4.602;2023-07-13T07:44:05;7.73;;;2.70;;
14698;SDS011;7439;50.804;4.602;2023-07-13T07:46:35;11.73;;;3.27;;
14698;SDS011;7439;50.804;4.602;2023-07-13T07:49:02;7.83;;;3.27;;
14698;SDS011;7439;50.804;4.602;2023-07-13T07:51:29;5.67;;;3.10;;
14698;SDS011;7439;50.804;4.602;2023-07-13T07:53:57;6.23;;;2.63;;
14698;SDS011;7439;50.804;4.602;2023-07-13T07:56:25;3.63;;;2.57;;
14698;SDS011;7439;50.804;4.602;2023-07-13T07:58:53;7.87;;;3.10;;
14698;SDS011;7439;50.804;4.602;2023-07-13T08:01:21;8.50;;;2.80;;
14698;SDS011;7439;50.804;4.602;2023-07-13T08:03:48;9.83;;;3.13;;
14698;SDS011;7439;50.804;4.602;2023-07-13T08:06:16;8.27;;;2.90;;
14698;SDS011;7439;50.804;4.602;2023-07-13T08:08:44;6.80;;;2.97;;
14698;SDS011;7439;50.804;4.602;2023-07-13T08:11:12;9.67;;;3.20;;
14698;SDS011;7439;50.804;4.602;2023-07-13T08:13:39;6.03;;;2.80;;
14698;SDS011;7439;50.804;4.602;2023-07-13T08:16:08;8.07;;;3.90;;
14698;SDS011;7439;50.804;4.602;2023-07-13T08:18:37;5.27;;;2.57;;
14698;SDS011;7439;50.804;4.602;2023-07-13T08:21:04;6.17;;;3.00;;
14698;SDS011;7439;50.804;4.602;2023-07-13T08:23:32;6.53;;;2.93;;
14698;SDS011;7439;50.804;4.602;2023-07-13T08:25:59;5.73;;;2.83;;
14698;SDS011;7439;50.804;4.602;2023-07-13T08:28:27;7.23;;;2.90;;
14698;SDS011;7439;50.804;4.602;2023-07-13T08:30:55;7.13;;;3.30;;
14698;SDS011;7439;50.804;4.602;2023-07-13T08:33:23;8.70;;;3.43;;
14698;SDS011;7439;50.804;4.602;2023-07-13T08:35:51;6.77;;;2.60;;
14698;SDS011;7439;50.804;4.602;2023-07-13T08:38:18;9.60;;;2.67;;
14698;SDS011;7439;50.804;4.602;2023-07-13T08:40:48;5.17;;;2.43;;
14698;SDS011;7439;50.804;4.602;2023-07-13T08:43:16;6.97;;;2.60;;
14698;SDS011;7439;50.804;4.602;2023-07-13T08:45:46;6.53;;;3.43;;
14698;SDS011;7439;50.804;4.602;2023-07-13T08:48:15;7.60;;;2.60;;
14698;SDS011;7439;50.804;4.602;2023-07-13T08:50:48;11.20;;;3.50;;
14698;SDS011;7439;50.804;4.602;2023-07-13T08:53:16;5.80;;;2.90;;
14698;SDS011;7439;50.804;4.602;2023-07-13T08:55:44;5.50;;;2.30;;
14698;SDS011;7439;50.804;4.602;2023-07-13T08:58:12;6.03;;;2.30;;
14698;SDS011;7439;50.804;4.602;2023-07-13T09:00:43;8.30;;;2.93;;
14698;SDS011;7439;50.804;4.602;2023-07-13T09:03:12;4.70;;;2.30;;
14698;SDS011;7439;50.804;4.602;2023-07-13T09:05:45;5.00;;;2.17;;
14698;SDS011;7439;50.804;4.602;2023-07-13T09:08:23;4.43;;;2.20;;
14698;SDS011;7439;50.804;4.602;2023-07-13T09:10:53;5.00;;;2.17;;
14698;SDS011;7439;50.804;4.602;2023-07-13T09:13:24;4.43;;;2.70;;
14698;SDS011;7439;50.804;4.602;2023-07-13T09:15:56;6.73;;;2.80;;
14698;SDS011;7439;50.804;4.602;2023-07-13T09:18:27;4.67;;;2.47;;
14698;SDS011;7439;50.804;4.602;2023-07-13T09:20:56;8.90;;;3.17;;
14698;SDS011;7439;50.804;4.602;2023-07-13T09:23:26;6.53;;;2.50;;
14698;SDS011;7439;50.804;4.602;2023-07-13T09:25:56;6.93;;;2.80;;
14698;SDS011;7439;50.804;4.602;2023-07-13T09:28:27;8.97;;;2.47;;
14698;SDS011;7439;50.804;4.602;2023-07-13T09:30:58;4.37;;;2.30;;
14698;SDS011;7439;50.804;4.602;2023-07-13T09:33:27;8.33;;;2.50;;
14698;SDS011;7439;50.804;4.602;2023-07-13T09:35:55;7.30;;;2.60;;
14698;SDS011;7439;50.804;4.602;2023-07-13T09:38:24;6.37;;;2.50;;
14698;SDS011;7439;50.804;4.602;2023-07-13T09:41:04;4.67;;;2.20;;
14698;SDS011;7439;50.804;4.602;2023-07-13T09:43:34;4.70;;;2.50;;
14698;SDS011;7439;50.804;4.602;2023-07-13T09:46:02;6.60;;;2.80;;
14698;SDS011;7439;50.804;4.602;2023-07-13T09:48:33;5.23;;;2.37;;
14698;SDS011;7439;50.804;4.602;2023-07-13T09:51:09;7.20;;;2.63;;
14698;SDS011;7439;50.804;4.602;2023-07-13T09:53:44;5.50;;;2.60;;
14698;SDS011;7439;50.804;4.602;2023-07-13T09:56:23;4.77;;;2.30;;
14698;SDS011;7439;50.804;4.602;2023-07-13T09:58:51;4.23;;;2.30;;
14698;SDS011;7439;50.804;4.602;2023-07-13T10:01:30;5.33;;;2.23;;
14698;SDS011;7439;50.804;4.602;2023-07-13T10:03:59;4.27;;;2.17;;
14698;SDS011;7439;50.804;4.602;2023-07-13T10:06:26;4.77;;;2.27;;
14698;SDS011;7439;50.804;4.602;2023-07-13T10:08:55;6.37;;;2.17;;
14698;SDS011;7439;50.804;4.602;2023-07-13T10:11:26;4.03;;;2.07;;
14698;SDS011;7439;50.804;4.602;2023-07-13T10:13:55;4.03;;;2.30;;
14698;SDS011;7439;50.804;4.602;2023-07-13T10:16:23;4.40;;;1.80;;
14698;SDS011;7439;50.804;4.602;2023-07-13T10:18:53;7.60;;;2.00;;
14698;SDS011;7439;50.804;4.602;2023-07-13T10:21:23;3.53;;;1.73;;
14698;SDS011;7439;50.804;4.602;2023-07-13T10:23:54;2.50;;;1.70;;
14698;SDS011;7439;50.804;4.602;2023-07-13T10:26:25;7.23;;;2.57;;
14698;SDS011;7439;50.804;4.602;2023-07-13T10:28:54;3.43;;;1.83;;
14698;SDS011;7439;50.804;4.602;2023-07-13T10:31:23;5.63;;;2.40;;
14698;SDS011;7439;50.804;4.602;2023-07-13T10:33:50;5.20;;;1.83;;
14698;SDS011;7439;50.804;4.602;2023-07-13T10:36:20;4.97;;;1.80;;
14698;SDS011;7439;50.804;4.602;2023-07-13T10:38:50;4.63;;;1.87;;
14698;SDS011;7439;50.804;4.602;2023-07-13T10:41:18;2.93;;;1.80;;
14698;SDS011;7439;50.804;4.602;2023-07-13T10:43:49;2.40;;;1.50;;
14698;SDS011;7439;50.804;4.602;2023-07-13T10:46:18;2.67;;;1.70;;
14698;SDS011;7439;50.804;4.602;2023-07-13T10:48:46;4.03;;;2.13;;
14698;SDS011;7439;50.804;4.602;2023-07-13T10:51:17;4.27;;;2.00;;
14698;SDS011;7439;50.804;4.602;2023-07-13T10:53:46;3.07;;;2.00;;
14698;SDS011;7439;50.804;4.602;2023-07-13T10:56:19;2.33;;;1.63;;
14698;SDS011;7439;50.804;4.602;2023-07-13T10:59:00;4.33;;;2.40;;
14698;SDS011;7439;50.804;4.602;2023-07-13T11:01:28;4.57;;;2.40;;
14698;SDS011;7439;50.804;4.602;2023-07-13T11:04:08;5.33;;;1.80;;
14698;SDS011;7439;50.804;4.602;2023-07-13T11:06:40;4.80;;;1.90;;
14698;SDS011;7439;50.804;4.602;2023-07-13T11:09:25;4.03;;;1.93;;
14698;SDS011;7439;50.804;4.602;2023-07-13T11:11:58;3.23;;;1.60;;
14698;SDS011;7439;50.804;4.602;2023-07-13T11:14:28;2.40;;;1.80;;
14698;SDS011;7439;50.804;4.602;2023-07-13T11:16:56;3.07;;;1.80;;
14698;SDS011;7439;50.804;4.602;2023-07-13T11:19:37;5.50;;;2.03;;
14698;SDS011;7439;50.804;4.602;2023-07-13T11:22:22;2.37;;;1.60;;
14698;SDS011;7439;50.804;4.602;2023-07-13T11:24:57;2.13;;;1.40;;
14698;SDS011;7439;50.804;4.602;2023-07-13T11:27:35;3.40;;;1.80;;
14698;SDS011;7439;50.804;4.602;2023-07-13T11:30:08;3.60;;;1.83;;
14698;SDS011;7439;50.804;4.602;2023-07-13T11:32:36;4.20;;;2.20;;
14698;SDS011;7439;50.804;4.602;2023-07-13T11:35:03;3.33;;;1.90;;
14698;SDS011;7439;50.804;4.602;2023-07-13T11:37:31;4.10;;;1.87;;
14698;SDS011;7439;50.804;4.602;2023-07-13T11:39:59;4.70;;;1.80;;
14698;SDS011;7439;50.804;4.602;2023-07-13T11:42:26;4.20;;;2.03;;
14698;SDS011;7439;50.804;4.602;2023-07-13T11:44:54;3.00;;;1.70;;
14698;SDS011;7439;50.804;4.602;2023-07-13T11:47:23;2.60;;;1.47;;
14698;SDS011;7439;50.804;4.602;2023-07-13T11:49:52;3.97;;;2.03;;
14698;SDS011;7439;50.804;4.602;2023-07-13T11:52:21;3.67;;;1.43;;
14698;SDS011;7439;50.804;4.602;2023-07-13T11:54:50;4.70;;;2.33;;
14698;SDS011;7439;50.804;4.602;2023-07-13T11:57:23;2.37;;;1.50;;
14698;SDS011;7439;50.804;4.602;2023-07-13T11:59:51;2.70;;;1.67;;
14698;SDS011;7439;50.804;4.602;2023-07-13T12:02:24;4.03;;;1.90;;
14698;SDS011;7439;50.804;4.602;2023-07-13T12:04:54;2.13;;;1.50;;
14698;SDS011;7439;50.804;4.602;2023-07-13T12:07:22;5.97;;;1.70;;
14698;SDS011;7439;50.804;4.602;2023-07-13T12:09:49;2.67;;;1.77;;
14698;SDS011;7439;50.804;4.602;2023-07-13T12:12:18;4.27;;;1.90;;
14698;SDS011;7439;50.804;4.602;2023-07-13T12:14:46;4.50;;;2.07;;
14698;SDS011;7439;50.804;4.602;2023-07-13T12:17:15;3.27;;;1.50;;
14698;SDS011;7439;50.804;4.602;2023-07-13T12:19:42;2.70;;;1.60;;
14698;SDS011;7439;50.804;4.602;2023-07-13T12:22:12;2.77;;;1.60;;
14698;SDS011;7439;50.804;4.602;2023-07-13T12:24:40;2.13;;;1.53;;
14698;SDS011;7439;50.804;4.602;2023-07-13T12:27:14;1.63;;;1.30;;
14698;SDS011;7439;50.804;4.602;2023-07-13T12:29:48;4.70;;;1.50;;
14698;SDS011;7439;50.804;4.602;2023-07-13T12:32:16;2.87;;;1.77;;
14698;SDS011;7439;50.804;4.602;2023-07-13T12:34:52;2.60;;;1.40;;
14698;SDS011;7439;50.804;4.602;2023-07-13T12:37:21;2.17;;;1.23;;
14698;SDS011;7439;50.804;4.602;2023-07-13T12:39:48;2.33;;;1.60;;
14698;SDS011;7439;50.804;4.602;2023-07-13T12:42:18;1.63;;;1.40;;
14698;SDS011;7439;50.804;4.602;2023-07-13T12:44:48;1.50;;;1.40;;
14698;SDS011;7439;50.804;4.602;2023-07-13T12:47:16;1.30;;;1.20;;
14698;SDS011;7439;50.804;4.602;2023-07-13T12:49:47;5.37;;;1.33;;
14698;SDS011;7439;50.804;4.602;2023-07-13T12:52:16;1.87;;;1.60;;
14698;SDS011;7439;50.804;4.602;2023-07-13T12:54:53;1.60;;;1.23;;
14698;SDS011;7439;50.804;4.602;2023-07-13T12:57:23;2.40;;;1.40;;
14698;SDS011;7439;50.804;4.602;2023-07-13T12:59:52;3.87;;;1.70;;
14698;SDS011;7439;50.804;4.602;2023-07-13T13:02:26;2.87;;;1.60;;
14698;SDS011;7439;50.804;4.602;2023-07-13T13:04:56;2.30;;;1.43;;
14698;SDS011;7439;50.804;4.602;2023-07-13T13:07:24;2.50;;;1.50;;
14698;SDS011;7439;50.804;4.602;2023-07-13T13:09:51;3.73;;;1.73;;
14698;SDS011;7439;50.804;4.602;2023-07-13T13:12:21;3.50;;;1.67;;
14698;SDS011;7439;50.804;4.602;2023-07-13T13:14:51;3.57;;;1.87;;
14698;SDS011;7439;50.804;4.602;2023-07-13T13:17:20;1.87;;;1.70;;
14698;SDS011;7439;50.804;4.602;2023-07-13T13:19:49;4.27;;;1.90;;
14698;SDS011;7439;50.804;4.602;2023-07-13T13:22:18;2.67;;;1.80;;
14698;SDS011;7439;50.804;4.602;2023-07-13T13:24:45;2.73;;;1.80;;
14698;SDS011;7439;50.804;4.602;2023-07-13T13:27:15;2.00;;;1.73;;
14698;SDS011;7439;50.804;4.602;2023-07-13T13:29:44;2.33;;;1.57;;
14698;SDS011;7439;50.804;4.602;2023-07-13T13:32:12;2.90;;;1.37;;
14698;SDS011;7439;50.804;4.602;2023-07-13T13:34:39;1.80;;;1.50;;
14698;SDS011;7439;50.804;4.602;2023-07-13T13:37:10;2.13;;;1.37;;
14698;SDS011;7439;50.804;4.602;2023-07-13T13:39:43;2.53;;;1.67;;
14698;SDS011;7439;50.804;4.602;2023-07-13T13:42:11;2.50;;;1.50;;
14698;SDS011;7439;50.804;4.602;2023-07-13T13:44:38;4.20;;;1.90;;
14698;SDS011;7439;50.804;4.602;2023-07-13T13:47:10;2.60;;;1.97;;
14698;SDS011;7439;50.804;4.602;2023-07-13T13:49:41;1.40;;;1.30;;
14698;SDS011;7439;50.804;4.602;2023-07-13T13:52:09;3.13;;;1.90;;
14698;SDS011;7439;50.804;4.602;2023-07-13T13:54:36;2.40;;;1.67;;
14698;SDS011;7439;50.804;4.602;2023-07-13T13:57:04;2.90;;;1.47;;
14698;SDS011;7439;50.804;4.602;2023-07-13T13:59:32;2.97;;;1.53;;
14698;SDS011;7439;50.804;4.602;2023-07-13T14:02:09;2.13;;;1.77;;
14698;SDS011;7439;50.804;4.602;2023-07-13T14:04:43;4.20;;;1.80;;
14698;SDS011;7439;50.804;4.602;2023-07-13T14:07:12;2.97;;;1.60;;
14698;SDS011;7439;50.804;4.602;2023-07-13T14:09:39;3.07;;;1.63;;
14698;SDS011;7439;50.804;4.602;2023-07-13T14:12:08;2.13;;;1.77;;
14698;SDS011;7439;50.804;4.602;2023-07-13T14:14:37;3.30;;;1.90;;
14698;SDS011;7439;50.804;4.602;2023-07-13T14:17:08;4.23;;;1.90;;
14698;SDS011;7439;50.804;4.602;2023-07-13T14:19:42;2.17;;;1.60;;
14698;SDS011;7439;50.804;4.602;2023-07-13T14:22:10;2.17;;;1.60;;
14698;SDS011;7439;50.804;4.602;2023-07-13T14:24:37;4.90;;;1.50;;
14698;SDS011;7439;50.804;4.602;2023-07-13T14:27:05;1.50;;;1.40;;
14698;SDS011;7439;50.804;4.602;2023-07-13T14:29:32;4.97;;;1.80;;
14698;SDS011;7439;50.804;4.602;2023-07-13T14:32:00;1.93;;;1.53;;
14698;SDS011;7439;50.804;4.602;2023-07-13T14:34:28;2.27;;;1.83;;
14698;SDS011;7439;50.804;4.602;2023-07-13T14:36:56;3.20;;;1.60;;
14698;SDS011;7439;50.804;4.602;2023-07-13T14:39:24;1.97;;;1.50;;
14698;SDS011;7439;50.804;4.602;2023-07-13T14:41:52;2.23;;;1.47;;
14698;SDS011;7439;50.804;4.602;2023-07-13T14:44:20;3.23;;;1.50;;
14698;SDS011;7439;50.804;4.602;2023-07-13T14:46:48;3.10;;;1.80;;
14698;SDS011;7439;50.804;4.602;2023-07-13T14:49:19;2.03;;;1.70;;
14698;SDS011;7439;50.804;4.602;2023-07-13T14:51:50;3.90;;;2.27;;
14698;SDS011;7439;50.804;4.602;2023-07-13T14:54:17;3.90;;;1.70;;
14698;SDS011;7439;50.804;4.602;2023-07-13T14:56:44;1.67;;;1.50;;
14698;SDS011;7439;50.804;4.602;2023-07-13T14:59:12;3.57;;;1.90;;
14698;SDS011;7439;50.804;4.602;2023-07-13T15:01:40;2.83;;;1.70;;
14698;SDS011;7439;50.804;4.602;2023-07-13T15:04:08;2.17;;;1.47;;
14698;SDS011;7439;50.804;4.602;2023-07-13T15:09:19;3.80;;;1.70;;
14698;SDS011;7439;50.804;4.602;2023-07-13T15:11:46;3.67;;;1.90;;